Chem Sun — V7GW6 — position and weather

sailwx.info

Track history (hours):
 
Tides and Currents Weather Stations Pressure Air Temp Water Temp Dewpoint Dewpoint Depression Visibility Wind Speed Wind Dir Waves Ship Positions

Chem Sun

Last reported at 2017-Dec-08 05:21 UTC. Time now 2017-Dec-13 22:18 UTC.
Position N 01°16' E 103°23'.

Length 96 m; draft 5.2 m.

Type: Tanker. MMSI: 538002185.

Date/timePositionNaut miles runAvg speedWind from/ knotsBaromVisibWave heightAir tempDewpointWater temp
2017-Dec-08 05:21N 01°16' E 103°23'511.9
2017-Dec-08 04:56N 01°14' E 103°27'512.5
2017-Dec-08 04:30N 01°13' E 103°33'612.9
2017-Dec-08 04:00N 01°12' E 103°39'2 3.8
2017-Dec-08 03:30N 01°12' E 103°41'0 0.1
2017-Dec-08 02:59N 01°12' E 103°41'0 0.0
2017-Dec-08 02:29N 01°12' E 103°41'0 0.0
2017-Dec-08 01:56N 01°12' E 103°41'0 0.1
2017-Dec-08 01:29N 01°12' E 103°41'0 0.1
2017-Dec-08 00:59N 01°12' E 103°41'0 0.0
2017-Dec-08 00:29N 01°12' E 103°41'0 0.0
2017-Dec-07 23:59N 01°12' E 103°41'0 0.0
2017-Dec-07 23:26N 01°12' E 103°41'0 0.0
2017-Dec-07 22:59N 01°12' E 103°41'0 0.0
2017-Dec-07 22:26N 01°12' E 103°41'0 0.0
2017-Dec-07 21:59N 01°12' E 103°41'0 0.0
2017-Dec-07 21:29N 01°12' E 103°41'0 0.2
2017-Dec-07 20:56N 01°12' E 103°41'0 0.0
2017-Dec-07 20:26N 01°12' E 103°41'0 0.0
2017-Dec-07 19:59N 01°12' E 103°41'0 0.1
2017-Dec-07 19:26N 01°12' E 103°41'0 0.0
2017-Dec-07 18:59N 01°12' E 103°41'0 0.0
2017-Dec-07 18:29N 01°12' E 103°41'0 0.0
2017-Dec-07 17:59N 01°12' E 103°41'0 0.1
2017-Dec-07 17:29N 01°12' E 103°41'0 0.0
2017-Dec-07 16:59N 01°12' E 103°41'0 0.1
2017-Dec-07 16:29N 01°12' E 103°41'0 0.1
2017-Dec-07 15:59N 01°12' E 103°41'0 0.0
2017-Dec-07 15:29N 01°12' E 103°41'0 0.0
2017-Dec-07 14:59N 01°12' E 103°41'0 0.0
2017-Dec-07 14:29N 01°12' E 103°41'0 0.1
2017-Dec-07 13:59N 01°12' E 103°41'0 0.0
2017-Dec-07 13:23N 01°12' E 103°41'0 0.0
2017-Dec-07 12:56N 01°12' E 103°41'0 0.0
2017-Dec-07 12:29N 01°12' E 103°41'0 0.1
2017-Dec-07 12:00N 01°12' E 103°41'1 1.7
2017-Dec-07 11:31N 01°12' E 103°40'3 5.9
2017-Dec-07 11:00N 01°10' E 103°42'4 8.7
2017-Dec-07 10:30N 01°10' E 103°46'510.1
2017-Dec-07 10:00N 01°12' E 103°51'510.4
2017-Dec-07 09:30N 01°14' E 103°55'611.2
2017-Dec-07 08:59N 01°16' E 104°01'5 9.5
2017-Dec-07 08:25N 01°18' E 104°06'1110.0
2017-Dec-07 07:20N 01°24' E 103°57'3 8.7
2017-Dec-07 06:56N 01°26' E 103°54'0 0.4
2017-Dec-07 06:30N 01°26' E 103°54'0 0.0
2017-Dec-07 06:00N 01°26' E 103°54'  
Track history (hours):
 
Tides and Currents Weather Stations Pressure Air Temp Water Temp Dewpoint Dewpoint Depression Visibility Wind Speed Wind Dir Waves Ship Positions

Chem Sun

Last reported at 2017-Dec-08 05:21 UTC. Time now 2017-Dec-13 22:18 UTC.
Position N 01°16' E 103°23'.

Length 96 m; draft 5.2 m.

Type: Tanker. MMSI: 538002185.

Date/timePositionNaut miles runAvg speedWind from/ knotsBaromVisibWave heightAir tempDewpointWater temp
2017-Dec-08 05:21N 01°16' E 103°23'511.9
2017-Dec-08 04:56N 01°14' E 103°27'512.5
2017-Dec-08 04:30N 01°13' E 103°33'612.9
2017-Dec-08 04:00N 01°12' E 103°39'2 3.8
2017-Dec-08 03:30N 01°12' E 103°41'0 0.1
2017-Dec-08 02:59N 01°12' E 103°41'0 0.0
2017-Dec-08 02:29N 01°12' E 103°41'0 0.0
2017-Dec-08 01:56N 01°12' E 103°41'0 0.1
2017-Dec-08 01:29N 01°12' E 103°41'0 0.1
2017-Dec-08 00:59N 01°12' E 103°41'0 0.0
2017-Dec-08 00:29N 01°12' E 103°41'0 0.0
2017-Dec-07 23:59N 01°12' E 103°41'0 0.0
2017-Dec-07 23:26N 01°12' E 103°41'0 0.0
2017-Dec-07 22:59N 01°12' E 103°41'0 0.0
2017-Dec-07 22:26N 01°12' E 103°41'0 0.0
2017-Dec-07 21:59N 01°12' E 103°41'0 0.0
2017-Dec-07 21:29N 01°12' E 103°41'0 0.2
2017-Dec-07 20:56N 01°12' E 103°41'0 0.0
2017-Dec-07 20:26N 01°12' E 103°41'0 0.0
2017-Dec-07 19:59N 01°12' E 103°41'0 0.1
2017-Dec-07 19:26N 01°12' E 103°41'0 0.0
2017-Dec-07 18:59N 01°12' E 103°41'0 0.0
2017-Dec-07 18:29N 01°12' E 103°41'0 0.0
2017-Dec-07 17:59N 01°12' E 103°41'0 0.1
2017-Dec-07 17:29N 01°12' E 103°41'0 0.0
2017-Dec-07 16:59N 01°12' E 103°41'0 0.1
2017-Dec-07 16:29N 01°12' E 103°41'0 0.1
2017-Dec-07 15:59N 01°12' E 103°41'0 0.0
2017-Dec-07 15:29N 01°12' E 103°41'0 0.0
2017-Dec-07 14:59N 01°12' E 103°41'0 0.0
2017-Dec-07 14:29N 01°12' E 103°41'0 0.1
2017-Dec-07 13:59N 01°12' E 103°41'0 0.0
2017-Dec-07 13:23N 01°12' E 103°41'0 0.0
2017-Dec-07 12:56N 01°12' E 103°41'0 0.0
2017-Dec-07 12:29N 01°12' E 103°41'0 0.1
2017-Dec-07 12:00N 01°12' E 103°41'1 1.7
2017-Dec-07 11:31N 01°12' E 103°40'3 5.9
2017-Dec-07 11:00N 01°10' E 103°42'4 8.7
2017-Dec-07 10:30N 01°10' E 103°46'510.1
2017-Dec-07 10:00N 01°12' E 103°51'510.4
2017-Dec-07 09:30N 01°14' E 103°55'611.2
2017-Dec-07 08:59N 01°16' E 104°01'5 9.5
2017-Dec-07 08:25N 01°18' E 104°06'1110.0
2017-Dec-07 07:20N 01°24' E 103°57'3 8.7
2017-Dec-07 06:56N 01°26' E 103°54'0 0.4
2017-Dec-07 06:30N 01°26' E 103°54'0 0.0
2017-Dec-07 06:00N 01°26' E 103°54'  

Dump ship's entire track history